createdAt,value
2023-02-05T00:00:05.894Z,56.25
2023-02-05T00:02:33.019Z,56.00
2023-02-05T00:04:59.824Z,56.13
2023-02-05T00:07:26.683Z,55.94
2023-02-05T00:09:53.224Z,56.09
2023-02-05T00:12:19.764Z,56.47
2023-02-05T00:14:46.232Z,56.32
2023-02-05T00:17:12.759Z,56.05
2023-02-05T00:19:39.221Z,57.15
2023-02-05T00:22:05.868Z,56.63
2023-02-05T00:24:32.661Z,56.87
2023-02-05T00:26:59.276Z,56.24
2023-02-05T00:29:26.261Z,56.31
2023-02-05T00:31:53.060Z,57.79
2023-02-05T00:34:20.073Z,57.07
2023-02-05T00:36:46.556Z,57.00
2023-02-05T00:39:14.245Z,56.53
2023-02-05T00:41:40.774Z,56.28
2023-02-05T00:44:07.307Z,56.43
2023-02-05T00:46:33.762Z,56.66
2023-02-05T00:49:00.345Z,56.45
2023-02-05T00:51:26.834Z,56.96
2023-02-05T00:53:53.572Z,56.77
2023-02-05T00:56:20.127Z,56.78
2023-02-05T00:58:48.953Z,56.56
2023-02-05T01:01:16.048Z,57.26
2023-02-05T01:03:42.756Z,57.31
2023-02-05T01:06:09.383Z,57.48
2023-02-05T01:08:36.015Z,57.95
2023-02-05T01:11:07.171Z,58.64
2023-02-05T01:13:34.136Z,58.47
2023-02-05T01:16:00.765Z,58.80
2023-02-05T01:18:27.860Z,60.56
2023-02-05T01:20:54.480Z,60.45
2023-02-05T01:23:21.038Z,60.27
2023-02-05T01:25:47.945Z,60.11
2023-02-05T01:28:14.489Z,60.10
2023-02-05T01:30:41.242Z,59.96
2023-02-05T01:33:07.863Z,59.59
2023-02-05T01:35:34.882Z,59.64
2023-02-05T01:38:01.570Z,61.17
2023-02-05T01:40:28.140Z,60.53
2023-02-05T01:42:54.715Z,60.12
2023-02-05T01:45:32.628Z,59.69
2023-02-05T01:48:04.310Z,59.83
2023-02-05T01:50:38.564Z,60.18
2023-02-05T01:53:32.263Z,59.86
2023-02-05T01:56:02.253Z,58.97
2023-02-05T01:58:32.587Z,60.17
2023-02-05T02:00:59.594Z,60.27
2023-02-05T02:03:30.630Z,59.89
2023-02-05T02:05:57.542Z,60.23
2023-02-05T02:08:24.223Z,61.51
2023-02-05T02:10:52.226Z,61.38
2023-02-05T02:13:19.934Z,61.13
2023-02-05T02:15:47.390Z,60.42
2023-02-05T02:18:26.097Z,60.01
2023-02-05T02:21:28.402Z,60.03
2023-02-05T02:24:16.698Z,59.82
2023-02-05T02:27:06.142Z,59.83
2023-02-05T02:29:57.930Z,59.28
2023-02-05T02:32:40.807Z,59.01
2023-02-05T02:35:12.615Z,58.58
2023-02-05T02:37:55.904Z,59.29
2023-02-05T02:40:27.623Z,58.90
2023-02-05T02:43:03.463Z,58.47
2023-02-05T02:45:33.869Z,58.49
2023-02-05T02:48:01.086Z,58.81
2023-02-05T02:50:34.851Z,59.48
2023-02-05T02:53:27.200Z,59.96
2023-02-05T02:55:55.204Z,60.33
2023-02-05T02:58:25.751Z,59.62
2023-02-05T03:00:53.625Z,59.68
2023-02-05T03:03:21.526Z,59.14
2023-02-05T03:05:49.661Z,58.89
2023-02-05T03:08:33.524Z,60.10
2023-02-05T03:11:03.485Z,61.39
2023-02-05T03:13:30.430Z,60.82
2023-02-05T03:15:57.041Z,60.66
2023-02-05T03:18:24.710Z,61.19
2023-02-05T03:21:03.645Z,62.59
2023-02-05T03:23:30.247Z,62.09
2023-02-05T03:25:56.761Z,62.18
2023-02-05T03:28:23.522Z,62.48
2023-02-05T03:31:20.666Z,61.70
2023-02-05T03:33:55.006Z,61.96
2023-02-05T03:36:49.339Z,61.83
2023-02-05T03:40:01.978Z,61.38
2023-02-05T03:42:56.903Z,61.92
2023-02-05T03:45:53.065Z,61.87
2023-02-05T03:48:38.397Z,61.20
2023-02-05T03:51:17.741Z,61.46
2023-02-05T03:54:26.597Z,61.64
2023-02-05T03:57:02.308Z,64.29
2023-02-05T03:59:29.004Z,65.11
2023-02-05T04:01:56.049Z,67.71
2023-02-05T04:04:22.941Z,66.85
2023-02-05T04:06:51.911Z,66.70
2023-02-05T04:09:18.847Z,68.47
2023-02-05T04:11:45.610Z,68.17
2023-02-05T04:14:12.096Z,67.22
2023-02-05T04:16:39.133Z,66.52
2023-02-05T04:19:05.656Z,66.03
2023-02-05T04:21:32.276Z,65.59
2023-02-05T04:23:58.922Z,65.20
2023-02-05T04:26:25.421Z,64.77
2023-02-05T04:28:52.003Z,66.31
2023-02-05T04:31:18.587Z,65.58
2023-02-05T04:33:45.327Z,64.96
2023-02-05T04:36:12.203Z,64.49
2023-02-05T04:38:39.339Z,64.15
2023-02-05T04:41:08.030Z,63.96
2023-02-05T04:43:34.577Z,63.89
2023-02-05T04:46:08.439Z,63.79
2023-02-05T04:48:44.017Z,64.02
2023-02-05T04:51:12.821Z,64.74
2023-02-05T04:53:39.973Z,64.23
2023-02-05T04:56:14.591Z,64.17
2023-02-05T04:58:41.240Z,63.89
2023-02-05T05:01:16.610Z,64.51
2023-02-05T05:03:43.288Z,66.38
2023-02-05T05:06:10.402Z,66.16
2023-02-05T05:08:37.461Z,66.15
2023-02-05T05:11:22.149Z,69.15
2023-02-05T05:13:49.768Z,72.59
2023-02-05T05:16:16.289Z,74.10
2023-02-05T05:18:43.128Z,72.98
2023-02-05T05:21:10.047Z,73.22
2023-02-05T05:23:37.679Z,72.20
2023-02-05T05:26:06.665Z,72.64
2023-02-05T05:28:34.811Z,72.99
2023-02-05T05:31:14.409Z,71.80
2023-02-05T05:33:41.300Z,73.10
2023-02-05T05:36:08.138Z,72.36
2023-02-05T05:38:34.932Z,72.20
2023-02-05T05:41:19.903Z,71.65
2023-02-05T05:43:46.527Z,71.04
2023-02-05T05:46:22.736Z,69.89
2023-02-05T05:49:00.317Z,69.54
2023-02-05T05:51:28.216Z,69.28
2023-02-05T05:53:55.192Z,68.31
2023-02-05T05:56:21.926Z,67.66
2023-02-05T05:58:49.152Z,68.40
2023-02-05T06:01:17.509Z,69.56
2023-02-05T06:03:44.132Z,68.64
2023-02-05T06:06:10.955Z,67.68
2023-02-05T06:08:37.480Z,67.34
2023-02-05T06:11:04.089Z,67.29
2023-02-05T06:13:30.849Z,68.13
2023-02-05T06:15:57.740Z,70.97
2023-02-05T06:18:24.308Z,70.10
2023-02-05T06:20:51.074Z,70.58
2023-02-05T06:23:17.900Z,74.34
2023-02-05T06:25:44.504Z,72.93
2023-02-05T06:28:11.811Z,73.22
2023-02-05T06:30:38.557Z,72.25
2023-02-05T06:33:05.487Z,71.00
2023-02-05T06:35:32.345Z,70.96
2023-02-05T06:37:59.059Z,73.76
2023-02-05T06:40:28.049Z,74.86
2023-02-05T06:42:55.169Z,74.02
2023-02-05T06:45:22.113Z,74.14
2023-02-05T06:47:49.089Z,73.09
2023-02-05T06:50:15.803Z,72.94
2023-02-05T06:52:42.386Z,72.20
2023-02-05T06:55:09.123Z,71.19
2023-02-05T06:57:35.652Z,72.24
2023-02-05T07:00:02.208Z,71.28
2023-02-05T07:02:28.686Z,70.97
2023-02-05T07:04:55.212Z,71.17
2023-02-05T07:07:21.774Z,71.47
2023-02-05T07:09:48.786Z,71.62
2023-02-05T07:12:15.293Z,71.89
2023-02-05T07:14:42.276Z,72.71
2023-02-05T07:17:11.143Z,75.29
2023-02-05T07:19:37.762Z,74.50
2023-02-05T07:22:05.097Z,73.83
2023-02-05T07:24:31.789Z,72.85
2023-02-05T07:26:58.354Z,73.59
2023-02-05T07:29:28.012Z,72.05
2023-02-05T07:31:54.555Z,72.16
2023-02-05T07:34:21.073Z,71.28
2023-02-05T07:36:51.087Z,71.84
2023-02-05T07:39:18.379Z,72.87
2023-02-05T07:41:44.967Z,73.00
2023-02-05T07:44:11.635Z,73.49
2023-02-05T07:46:38.233Z,74.79
2023-02-05T07:49:04.807Z,74.27
2023-02-05T07:51:32.658Z,74.85
2023-02-05T07:53:59.204Z,76.14
2023-02-05T07:56:25.861Z,74.00
2023-02-05T07:58:52.426Z,74.79
2023-02-05T08:01:19.062Z,74.02
2023-02-05T08:03:45.611Z,75.92
2023-02-05T08:06:15.123Z,74.12
2023-02-05T08:08:41.760Z,73.75
2023-02-05T08:11:08.308Z,75.38
2023-02-05T08:13:35.023Z,76.14
2023-02-05T08:16:05.934Z,77.42
2023-02-05T08:18:32.577Z,76.68
2023-02-05T08:20:59.537Z,75.47
2023-02-05T08:23:26.327Z,73.99
2023-02-05T08:25:57.162Z,74.52
2023-02-05T08:28:25.013Z,73.60
2023-02-05T08:30:51.770Z,74.03
2023-02-05T08:33:18.644Z,73.80
2023-02-05T08:35:45.510Z,74.90
2023-02-05T08:38:12.101Z,73.78
2023-02-05T08:40:38.627Z,74.38
2023-02-05T08:43:05.218Z,73.68
2023-02-05T08:45:31.889Z,73.94
2023-02-05T08:47:58.539Z,75.00
2023-02-05T08:50:25.263Z,75.30
2023-02-05T08:52:51.782Z,74.62
2023-02-05T08:55:18.320Z,74.35
2023-02-05T08:57:45.219Z,75.79
2023-02-05T09:00:13.019Z,75.44
2023-02-05T09:02:42.241Z,74.19
2023-02-05T09:05:09.826Z,75.32
2023-02-05T09:07:41.322Z,74.20
2023-02-05T09:10:09.718Z,73.87
2023-02-05T09:12:36.555Z,72.51
2023-02-05T09:15:03.264Z,71.27
2023-02-05T09:17:29.856Z,70.11
2023-02-05T09:19:56.649Z,69.94
2023-02-05T09:22:23.285Z,69.16
2023-02-05T09:24:49.874Z,68.97
2023-02-05T09:27:16.350Z,72.21
2023-02-05T09:29:42.909Z,72.83
2023-02-05T09:32:09.626Z,73.36
2023-02-05T09:34:36.189Z,73.08
2023-02-05T09:37:02.958Z,73.98
2023-02-05T09:40:17.313Z,73.36
2023-02-05T09:42:33.042Z,74.29
2023-02-05T09:45:38.162Z,74.08
2023-02-05T09:48:08.746Z,73.75
2023-02-05T09:50:36.596Z,73.86
2023-02-05T09:53:06.577Z,73.41
2023-02-05T09:55:36.626Z,72.33
2023-02-05T09:58:07.275Z,72.37
2023-02-05T10:01:01.780Z,72.93
2023-02-05T10:03:34.320Z,73.07
2023-02-05T10:06:03.934Z,72.86
2023-02-05T10:08:41.010Z,72.10
2023-02-05T10:11:18.508Z,71.46
2023-02-05T10:13:47.510Z,70.04
2023-02-05T10:16:20.025Z,70.13
2023-02-05T10:19:13.421Z,71.35
2023-02-05T10:22:00.656Z,71.08
2023-02-05T10:24:49.035Z,70.91
2023-02-05T10:27:26.857Z,70.35
2023-02-05T10:30:04.054Z,69.89
2023-02-05T10:32:52.955Z,70.24
2023-02-05T10:35:33.347Z,71.06
2023-02-05T10:38:01.168Z,71.19
2023-02-05T10:40:31.252Z,71.21
2023-02-05T10:43:05.649Z,72.43
2023-02-05T10:45:36.617Z,72.88
2023-02-05T10:48:09.520Z,71.46
2023-02-05T10:51:01.687Z,72.06
2023-02-05T10:53:29.068Z,71.57
2023-02-05T10:55:57.601Z,71.65
2023-02-05T10:58:37.030Z,72.71
2023-02-05T11:01:05.467Z,72.27
2023-02-05T11:03:33.202Z,71.48
2023-02-05T11:05:59.691Z,72.65
2023-02-05T11:08:45.160Z,71.99
2023-02-05T11:11:31.720Z,73.38
2023-02-05T11:14:06.402Z,72.43
2023-02-05T11:16:41.623Z,72.37
2023-02-05T11:19:24.067Z,71.73
2023-02-05T11:21:56.722Z,71.15
2023-02-05T11:24:33.895Z,72.69
2023-02-05T11:27:33.800Z,73.70
2023-02-05T11:30:28.639Z,71.30
2023-02-05T11:33:16.413Z,72.40
2023-02-05T11:35:56.271Z,72.86
2023-02-05T11:38:35.076Z,72.47
2023-02-05T11:41:05.708Z,71.82
2023-02-05T11:43:38.230Z,72.92
2023-02-05T11:46:08.518Z,72.22
2023-02-05T11:48:57.414Z,72.03
2023-02-05T11:51:36.171Z,72.71
2023-02-05T11:54:10.537Z,70.90
2023-02-05T11:56:37.039Z,69.94
2023-02-05T11:59:18.475Z,69.76
2023-02-05T12:01:45.797Z,69.88
2023-02-05T12:04:12.487Z,69.28
2023-02-05T12:06:44.927Z,71.26
2023-02-05T12:09:14.736Z,70.05
2023-02-05T12:12:06.653Z,70.98
2023-02-05T12:14:40.771Z,71.24
2023-02-05T12:17:22.554Z,72.44
2023-02-05T12:19:55.102Z,73.20
2023-02-05T12:23:00.095Z,73.08
2023-02-05T12:25:30.137Z,73.02
2023-02-05T12:28:30.271Z,72.17
2023-02-05T12:31:22.269Z,71.73
2023-02-05T12:34:07.704Z,72.76
2023-02-05T12:36:47.114Z,72.92
2023-02-05T12:39:36.097Z,72.97
2023-02-05T12:42:24.565Z,72.42
2023-02-05T12:45:06.402Z,73.12
2023-02-05T12:47:45.021Z,73.29
2023-02-05T12:50:45.968Z,72.63
2023-02-05T12:53:28.216Z,72.89
2023-02-05T12:56:03.990Z,73.02
2023-02-05T12:58:37.661Z,73.40
2023-02-05T13:01:09.059Z,72.27
2023-02-05T13:03:39.129Z,72.77
2023-02-05T13:06:26.894Z,73.25
2023-02-05T13:08:58.659Z,72.92
2023-02-05T13:11:39.529Z,72.43
2023-02-05T13:14:14.186Z,71.86
2023-02-05T13:16:56.461Z,72.33
2023-02-05T13:19:30.916Z,72.11
2023-02-05T13:22:18.004Z,72.62
2023-02-05T13:25:11.397Z,71.33
2023-02-05T13:28:02.129Z,71.66
2023-02-05T13:30:35.309Z,71.47
2023-02-05T13:33:05.448Z,71.99
2023-02-05T13:35:40.211Z,71.72
2023-02-05T13:38:35.553Z,71.06
2023-02-05T13:41:36.953Z,71.84
2023-02-05T13:44:31.372Z,71.79
2023-02-05T13:47:18.187Z,72.24
2023-02-05T13:49:59.153Z,71.61
2023-02-05T13:52:53.269Z,72.54
2023-02-05T13:55:24.973Z,71.90
2023-02-05T13:58:11.870Z,72.42
2023-02-05T14:00:41.324Z,72.00
2023-02-05T14:03:09.754Z,71.42
2023-02-05T14:05:38.392Z,72.85
2023-02-05T14:08:05.897Z,73.06
2023-02-05T14:10:40.151Z,73.65
2023-02-05T14:13:34.260Z,73.54
2023-02-05T14:16:26.099Z,73.24
2023-02-05T14:19:02.131Z,73.42
2023-02-05T14:21:31.894Z,73.61
2023-02-05T14:24:35.858Z,73.74
2023-02-05T14:27:02.414Z,72.00
2023-02-05T14:29:47.102Z,72.27
2023-02-05T14:32:39.091Z,71.87
2023-02-05T14:35:05.724Z,72.24
2023-02-05T14:37:40.968Z,72.36
2023-02-05T14:40:23.041Z,72.21
2023-02-05T14:42:57.098Z,72.13
2023-02-05T14:45:29.058Z,70.86
2023-02-05T14:47:56.498Z,70.65
2023-02-05T14:50:28.773Z,70.68
2023-02-05T14:53:03.200Z,70.61
2023-02-05T14:55:36.283Z,69.99
2023-02-05T14:58:05.971Z,69.40
2023-02-05T15:00:32.610Z,69.33
2023-02-05T15:03:05.328Z,69.69
2023-02-05T15:05:41.232Z,68.95
2023-02-05T15:08:36.505Z,68.09
2023-02-05T15:11:21.960Z,67.35
2023-02-05T15:14:19.696Z,67.59
2023-02-05T15:16:47.290Z,68.29
2023-02-05T15:19:15.656Z,68.38
2023-02-05T15:21:51.185Z,67.43
2023-02-05T15:24:24.914Z,67.88
2023-02-05T15:27:07.686Z,67.25
2023-02-05T15:29:38.249Z,67.85
2023-02-05T15:32:19.437Z,67.63
2023-02-05T15:34:52.651Z,67.28
2023-02-05T15:37:25.879Z,67.21
2023-02-05T15:40:11.250Z,66.43
2023-02-05T15:42:39.965Z,66.10
2023-02-05T15:45:44.818Z,65.76
2023-02-05T15:48:12.959Z,66.39
2023-02-05T15:50:47.721Z,66.16
2023-02-05T15:53:33.143Z,65.50
2023-02-05T15:56:12.793Z,66.66
2023-02-05T15:58:46.183Z,65.72
2023-02-05T16:01:22.534Z,65.96
2023-02-05T16:03:49.302Z,67.35
2023-02-05T16:06:20.739Z,67.38
2023-02-05T16:08:48.657Z,66.12
2023-02-05T16:11:33.064Z,67.03
2023-02-05T16:14:10.653Z,67.49
2023-02-05T16:16:40.470Z,67.40
2023-02-05T16:19:15.150Z,67.94
2023-02-05T16:21:49.376Z,67.35
2023-02-05T16:24:26.663Z,66.67
2023-02-05T16:27:01.057Z,67.51
2023-02-05T16:29:46.118Z,68.47
2023-02-05T16:32:42.392Z,68.64
2023-02-05T16:35:40.771Z,66.88
2023-02-05T16:38:14.698Z,66.29
2023-02-05T16:40:43.716Z,66.83
2023-02-05T16:43:30.832Z,66.22
2023-02-05T16:46:06.732Z,65.49
2023-02-05T16:48:36.940Z,65.09
2023-02-05T16:51:04.399Z,65.27
2023-02-05T16:53:33.714Z,65.23
2023-02-05T16:56:22.205Z,64.78
2023-02-05T16:58:51.925Z,64.81
2023-02-05T17:01:27.840Z,64.80
2023-02-05T17:03:55.256Z,64.55
2023-02-05T17:06:22.469Z,66.67
2023-02-05T17:08:55.176Z,67.63
2023-02-05T17:11:48.080Z,68.15
2023-02-05T17:14:29.939Z,67.70
2023-02-05T17:17:00.995Z,67.70
2023-02-05T17:19:32.463Z,69.28
2023-02-05T17:22:14.479Z,68.71
2023-02-05T17:24:47.955Z,68.56
2023-02-05T17:27:33.301Z,69.18
2023-02-05T17:30:00.915Z,69.32
2023-02-05T17:32:28.461Z,69.76
2023-02-05T17:34:55.305Z,69.60
2023-02-05T17:37:21.943Z,70.46
2023-02-05T17:39:49.835Z,69.28
2023-02-05T17:42:22.144Z,68.93
2023-02-05T17:44:49.448Z,69.93
2023-02-05T17:47:16.511Z,71.33
2023-02-05T17:49:43.352Z,70.04
2023-02-05T17:52:10.389Z,70.60
2023-02-05T17:54:36.939Z,70.61
2023-02-05T17:57:22.268Z,71.02
2023-02-05T17:59:49.288Z,70.31
2023-02-05T18:02:16.621Z,69.88
2023-02-05T18:04:44.818Z,69.98
2023-02-05T18:07:58.051Z,70.56
2023-02-05T18:10:28.197Z,69.21
2023-02-05T18:12:56.085Z,69.76
2023-02-05T18:15:23.857Z,69.34
2023-02-05T18:17:50.879Z,68.63
2023-02-05T18:20:19.672Z,68.91
2023-02-05T18:22:47.682Z,67.72
2023-02-05T18:25:14.306Z,69.08
2023-02-05T18:27:40.876Z,67.93
2023-02-05T18:30:08.379Z,67.36
2023-02-05T18:32:34.912Z,66.99
2023-02-05T18:35:01.457Z,66.30
2023-02-05T18:37:28.058Z,66.26
2023-02-05T18:39:54.804Z,66.12
2023-02-05T18:42:22.321Z,65.93
2023-02-05T18:44:49.227Z,65.58
2023-02-05T18:47:15.798Z,65.68
2023-02-05T18:49:42.405Z,65.25
2023-02-05T18:52:10.252Z,65.06
2023-02-05T18:54:36.848Z,64.40
2023-02-05T18:57:03.605Z,64.26
2023-02-05T18:59:30.141Z,64.49
2023-02-05T19:01:56.894Z,63.39
2023-02-05T19:04:24.795Z,63.42
2023-02-05T19:06:54.928Z,63.38
2023-02-05T19:09:23.002Z,63.12
2023-02-05T19:11:50.143Z,63.42
2023-02-05T19:14:19.243Z,63.68
2023-02-05T19:16:47.180Z,63.53
2023-02-05T19:19:20.165Z,63.62
2023-02-05T19:21:49.032Z,64.03
2023-02-05T19:24:17.357Z,64.34
2023-02-05T19:26:44.206Z,63.69
2023-02-05T19:29:16.381Z,63.75
2023-02-05T19:31:44.362Z,65.96
2023-02-05T19:34:11.688Z,66.29
2023-02-05T19:36:38.901Z,65.69
2023-02-05T19:39:07.371Z,66.26
2023-02-05T19:41:35.494Z,66.22
2023-02-05T19:44:04.722Z,65.50
2023-02-05T19:46:34.998Z,64.77
2023-02-05T19:49:07.111Z,65.36
2023-02-05T19:51:34.167Z,65.40
2023-02-05T19:54:03.121Z,65.26
2023-02-05T19:56:30.519Z,65.59
2023-02-05T19:58:57.163Z,65.27
2023-02-05T20:01:26.707Z,65.89
2023-02-05T20:03:58.568Z,65.10
2023-02-05T20:06:28.072Z,65.04
2023-02-05T20:08:55.040Z,63.68
2023-02-05T20:11:21.663Z,64.10
2023-02-05T20:13:48.407Z,64.51
2023-02-05T20:16:18.522Z,63.29
2023-02-05T20:18:45.535Z,63.27
2023-02-05T20:21:14.533Z,64.25
2023-02-05T20:23:42.697Z,63.54
2023-02-05T20:26:10.497Z,63.27
2023-02-05T20:29:00.631Z,63.80
2023-02-05T20:31:35.396Z,63.49
2023-02-05T20:34:09.432Z,63.23
2023-02-05T20:36:36.840Z,63.61
2023-02-05T20:39:06.220Z,63.25
2023-02-05T20:41:33.680Z,62.95
2023-02-05T20:44:03.412Z,62.60
2023-02-05T20:46:30.960Z,62.32
2023-02-05T20:48:58.855Z,63.01
2023-02-05T20:51:25.386Z,61.97
2023-02-05T20:53:56.998Z,61.76
2023-02-05T20:56:24.894Z,61.73
2023-02-05T20:58:51.957Z,62.11
2023-02-05T21:01:20.833Z,60.80
2023-02-05T21:03:50.354Z,61.22
2023-02-05T21:06:18.377Z,60.40
2023-02-05T21:08:46.557Z,60.33
2023-02-05T21:11:16.573Z,60.18
2023-02-05T21:13:44.980Z,59.86
2023-02-05T21:16:18.003Z,61.08
2023-02-05T21:18:47.600Z,60.51
2023-02-05T21:21:24.416Z,60.56
2023-02-05T21:23:59.391Z,59.90
2023-02-05T21:26:31.340Z,60.21
2023-02-05T21:29:04.917Z,60.65
2023-02-05T21:31:35.288Z,60.49
2023-02-05T21:34:02.619Z,59.96
2023-02-05T21:36:29.687Z,60.40
2023-02-05T21:38:56.708Z,61.32
2023-02-05T21:41:23.489Z,61.00
2023-02-05T21:43:57.547Z,60.15
2023-02-05T21:46:25.490Z,60.54
2023-02-05T21:48:54.304Z,61.42
2023-02-05T21:51:24.446Z,60.71
2023-02-05T21:53:57.094Z,61.74
2023-02-05T21:56:25.430Z,61.93
2023-02-05T21:58:51.963Z,62.41
2023-02-05T22:01:21.399Z,61.18
2023-02-05T22:03:52.870Z,60.51
2023-02-05T22:06:20.214Z,60.57
2023-02-05T22:08:48.227Z,62.07
2023-02-05T22:11:15.081Z,61.26
2023-02-05T22:13:43.410Z,60.92
2023-02-05T22:16:11.742Z,60.87
2023-02-05T22:18:38.413Z,60.53
2023-02-05T22:21:06.843Z,60.65
2023-02-05T22:23:33.388Z,61.39
2023-02-05T22:26:00.078Z,60.79
2023-02-05T22:28:26.775Z,60.83
2023-02-05T22:31:06.712Z,60.57
2023-02-05T22:33:36.669Z,60.45
2023-02-05T22:36:03.844Z,60.74
2023-02-05T22:38:32.174Z,60.39
2023-02-05T22:40:59.418Z,60.50
2023-02-05T22:43:27.354Z,60.12
2023-02-05T22:45:53.849Z,60.30
2023-02-05T22:48:20.439Z,60.33
2023-02-05T22:50:47.450Z,60.52
2023-02-05T22:53:13.991Z,60.70
2023-02-05T22:55:40.510Z,60.62
2023-02-05T22:58:07.400Z,60.75
2023-02-05T23:00:34.280Z,60.97
2023-02-05T23:03:01.008Z,60.41
2023-02-05T23:05:31.403Z,60.49
2023-02-05T23:07:58.551Z,60.63
2023-02-05T23:10:25.047Z,61.00
2023-02-05T23:12:51.527Z,60.32
2023-02-05T23:15:18.151Z,61.14
2023-02-05T23:17:44.648Z,61.09
2023-02-05T23:20:11.714Z,60.72
2023-02-05T23:22:38.238Z,60.39
2023-02-05T23:25:05.611Z,60.57
2023-02-05T23:27:33.450Z,60.81
2023-02-05T23:30:00.213Z,60.43
2023-02-05T23:32:26.828Z,60.41
2023-02-05T23:34:53.413Z,60.46
2023-02-05T23:37:20.099Z,60.48
2023-02-05T23:39:46.621Z,60.67
2023-02-05T23:42:13.136Z,60.40
2023-02-05T23:44:39.633Z,60.50
2023-02-05T23:47:06.131Z,60.66
2023-02-05T23:49:32.606Z,60.63
2023-02-05T23:51:59.177Z,60.30
2023-02-05T23:54:26.290Z,60.43
2023-02-05T23:56:52.938Z,60.11
2023-02-05T23:59:19.492Z,60.63
